Terminal Aerodrome Forecast
Issued by NWS Sioux Falls, SD

Home | Current Version | Previous Version | Graphics & Text | Print | Product List | Glossary On
Versions: 1 2 3 4 5 6 7 8 9 10 11 12 13 14 15 16 17 18 19 20 21 22 23 24 25 26 27 28 29
000
FTUS43 KFSD 281106 AAA
TAFSUX
TAF AMD
KSUX 281106Z 2811/2906 VRB04KT 4SM TSRA OVC035CB
     FM281130 10007KT P6SM SCT040 OVC100
     FM281500 23010KT P6SM SCT025
     FM281800 30010KT P6SM BKN025
     FM290200 32006KT P6SM SKC=

USA.gov is the U.S. government's official web portal to all federal, state and local government web resources and services.